Ruby Princess — ZCDY2 — position and weather

sailwx.info

Track history (hours):
 
Tides and Currents Weather Stations Pressure Air Temp Water Temp Dewpoint Dewpoint Depression Visibility Wind Speed Wind Dir Waves Ship Positions

Ruby Princess

Last reported at 2017-May-29 13:00 UTC. Time now 2017-May-29 17:03 UTC.
Position N 57°06' W 134°06'.

Length 289 m.

Type: Ship. MMSI: 310567000.

Wind from 170 at 7 knots

Barometer 1017.6 mb
Air temperature 8.5 ° C
Visibility: greater than 10.8 NM
Dewpoint 7.9 ° C
Water temperature 8.0 ° C

Date/timePositionNaut miles runAvg speedWind from/ knotsBaromVisibWave heightAir tempDewpointWater temp
2017-May-29 13:00N 57°06' W 134°06'6722.2 170 / 71017.610.8 8.5 7.9 8.0
2017-May-29 10:00N 56°00' W 134°24'6722.5 180 / 101018.1 5.4 8.5 6.3 9.0
2017-May-29 07:00N 54°54' W 134°00'40921.1 210 / 161019.510.8 9.0 6.9 9.0
2017-May-28 11:35N 49°28' W 127°17'221.0
2017-May-28 11:30N 49°27' W 127°15'1221.8
2017-May-28 10:56N 49°20' W 126°60'921.5
2017-May-28 10:30N 49°14' W 126°49'1121.4
2017-May-28 10:00N 49°08' W 126°35'1122.0
2017-May-28 09:30N 49°03' W 126°20'1121.8
2017-May-28 09:00N 48°58' W 126°05'1122.0
2017-May-28 08:30N 48°53' W 125°50'1122.0
2017-May-28 08:00N 48°48' W 125°35'4272.4
2017-May-28 08:00N 48°48' W 125°42'1531.0 240 / 201018.0 0.1 9.5 9.511.0
2017-May-28 07:30N 48°42' W 125°21'1122.1
2017-May-28 07:00N 48°38' W 125°06'54107.0
2017-May-28 06:30N 48°17' W 123°51'1121.5
2017-May-28 06:00N 48°15' W 123°35'474975.7
2017-May-28 06:00N 48°30' W 124°42'8754.1 230 / 101020.0 0.1 9.5 9.511.0
2017-May-28 04:24N 48°03' W 122°38'718.5
2017-May-28 04:00N 47°57' W 122°33'1021.4
2017-May-28 03:30N 47°47' W 122°26'917.0
2017-May-28 03:00N 47°39' W 122°27'3875.0
2017-May-28 02:30N 48°12' W 122°53'1019.3
2017-May-28 02:00N 48°07' W 122°41'1019.7
2017-May-28 01:29N 47°58' W 122°34'1020.1
2017-May-28 01:00N 47°49' W 122°27'1019.9
2017-May-28 00:30N 47°40' W 122°27'3 7.0
2017-May-28 00:00N 47°38' W 122°23'0 0.0
2017-May-27 23:30N 47°38' W 122°23'4772.9
2017-May-27 22:51N 48°11' W 123°11'515.5
2017-May-27 22:30N 48°10' W 123°19'5091.9
2017-May-27 21:58N 47°38' W 122°23'56116.7
2017-May-27 21:29N 48°12' W 123°30'56107.7
2017-May-27 20:58N 47°38' W 122°23'0 0.0
2017-May-27 20:30N 47°38' W 122°23'0 0.0
2017-May-27 19:57N 47°38' W 122°23'0 0.0
2017-May-27 19:30N 47°38' W 122°23'0 0.0
2017-May-27 19:00N 47°38' W 122°23'0 0.0
2017-May-27 18:30N 47°38' W 122°23'0 0.0
2017-May-27 17:59N 47°38' W 122°23'0 0.0
2017-May-27 17:29N 47°38' W 122°23'0 0.0
2017-May-27 16:59N 47°38' W 122°23'0 0.0
2017-May-27 16:29N 47°38' W 122°23'0 0.0
2017-May-27 15:59N 47°38' W 122°23'0 0.0
2017-May-27 15:28N 47°38' W 122°23'0 0.0
2017-May-27 14:58N 47°38' W 122°23'0 0.0
2017-May-27 14:28N 47°38' W 122°23'0 0.0
2017-May-27 13:30N 47°38' W 122°23'0 0.0
2017-May-27 13:01N 47°38' W 122°23'2 3.4
2017-May-27 12:30N 47°37' W 122°25'611.2
2017-May-27 12:00N 47°43' W 122°27'713.3
2017-May-27 11:30N 47°49' W 122°28'815.2
2017-May-27 11:00N 47°56' W 122°32'816.5
2017-May-27 10:30N 48°03' W 122°39'917.2
2017-May-27 10:00N 48°10' W 122°47'817.3
2017-May-27 09:30N 48°12' W 122°59'816.1
2017-May-27 09:00N 48°11' W 123°11'815.9
2017-May-27 08:30N 48°10' W 123°23'511.1
2017-May-27 08:00N 48°12' W 123°30'816.8
2017-May-27 07:30N 48°21' W 123°26'5 9.0
2017-May-27 06:59N 48°25' W 123°24'0 0.1
2017-May-27 05:45N 48°25' W 123°24'0 0.0
2017-May-27 03:08N 48°25' W 123°24'0 0.0
2017-May-27 01:55N 48°25' W 123°24'0 0.0
2017-May-27 01:27N 48°25' W 123°24'2 3.5
2017-May-27 01:00N 48°24' W 123°25'714.6
2017-May-27 00:30N 48°16' W 123°25'918.9
2017-May-27 00:00N 48°13' W 123°39'1122.0
2017-May-26 23:30N 48°14' W 123°55'1121.5
2017-May-26 23:00N 48°18' W 124°10'1122.0
2017-May-26 22:30N 48°23' W 124°25'1020.1
2017-May-26 22:00N 48°27' W 124°39'918.4
2017-May-26 21:30N 48°29' W 124°52'1019.1
2017-May-26 21:00N 48°29' W 125°07'918.3
2017-May-26 20:30N 48°32' W 125°19'1020.2
2017-May-26 20:00N 48°37' W 125°32'1121.9
2017-May-26 19:31N 48°43' W 125°47'1121.4
2017-May-26 19:00N 48°49' W 126°00'1121.6
2017-May-26 18:30N 48°55' W 126°13'1121.9
2017-May-26 18:00N 49°02' W 126°26'1122.0
2017-May-26 17:30N 49°09' W 126°39'1121.9
2017-May-26 17:00N 49°16' W 126°53'1322.7
2017-May-26 16:27N 49°24' W 127°08'4116.9
2017-May-26 14:00N 49°48' W 128°00'9826.3 320 / 36
2017-May-26 10:17N 51°09' W 129°26'1422.5
2017-May-26 09:40N 51°22' W 129°34'522.6
2017-May-26 09:28N 51°26' W 129°36'1022.7
2017-May-26 09:00N 51°36' W 129°42'4522.2
2017-May-26 07:00N 52°18' W 130°06'18811.7 330 / 281018.810.8 9.5 6.310.0
2017-May-25 15:00N 55°18' W 131°36'22714.6 300 / 151020.010.8 11.0 7.9 9.0
2017-May-24 23:27N 58°18' W 135°48'614.8
2017-May-24 23:01N 58°22' W 135°58'611.4
2017-May-24 22:31N 58°28' W 136°02'917.6
2017-May-24 22:00N 58°36' W 136°03'  
2017-May-22 14:00N 57°12' W 133°54'21719.7 240 / 71023.810.8 10.8 4.6 8.0
2017-May-22 03:00N 53°36' W 133°24'22120.1 160 / 211028.0 2.2 10.8 9.210.0
2017-May-21 16:00N 50°36' W 129°54'12924.2 210 / 221030.4 2.2 10.0 9.412.0
2017-May-21 10:39N 49°20' W 127°12'621.5
2017-May-21 10:22N 49°16' W 127°04'821.3
2017-May-21 09:59N 49°11' W 126°55'1021.4
2017-May-21 09:31N 49°05' W 126°42'1121.8
2017-May-21 09:00N 48°59' W 126°27'2158.4
2017-May-21 09:00N 49°00' W 126°30'1326.2 280 / 211027.4 0.5 9.8 12.0
2017-May-21 08:31N 48°54' W 126°13'1121.8
2017-May-21 08:01N 48°48' W 125°60'1121.6
2017-May-21 07:31N 48°42' W 125°45'1121.4
2017-May-21 07:01N 48°37' W 125°31'1121.4
2017-May-21 06:31N 48°32' W 125°17'1120.9
2017-May-21 06:00N 48°31' W 125°01'1121.5
2017-May-21 05:31N 48°32' W 124°45'1121.3
2017-May-21 05:01N 48°27' W 124°30'1121.5
2017-May-21 04:31N 48°23' W 124°15'1121.0
2017-May-21 04:00N 48°19' W 124°01'1020.8
2017-May-21 03:31N 48°17' W 123°46'1121.0
2017-May-21 03:00N 48°15' W 123°30'815.7
2017-May-21 02:31N 48°09' W 123°22'816.6
2017-May-21 02:00N 48°12' W 123°10'1121.3
2017-May-21 01:30N 48°12' W 122°55'1122.2
2017-May-21 01:00N 48°07' W 122°40'1122.4
2017-May-21 00:31N 47°57' W 122°33'1121.6
2017-May-21 00:01N 47°47' W 122°26'918.2
2017-May-20 23:31N 47°38' W 122°26'2 4.3
2017-May-20 22:59N 47°38' W 122°23'0 0.0
2017-May-20 22:29N 47°38' W 122°23'0 0.0
2017-May-20 21:59N 47°38' W 122°23'0 0.0
2017-May-20 21:28N 47°38' W 122°23'0 0.0
2017-May-20 20:58N 47°38' W 122°23'0 0.0
2017-May-20 20:28N 47°38' W 122°23'0 0.0
2017-May-20 19:58N 47°38' W 122°23'0 0.0
2017-May-20 19:30N 47°38' W 122°23'0 0.0
2017-May-20 19:00N 47°38' W 122°23'0 0.0
2017-May-20 18:30N 47°38' W 122°23'0 0.0
2017-May-20 17:57N 47°38' W 122°23'0 0.0
2017-May-20 17:30N 47°38' W 122°23'0 0.0
2017-May-20 16:59N 47°38' W 122°23'0 0.0
2017-May-20 16:29N 47°38' W 122°23'0 0.0
2017-May-20 15:59N 47°38' W 122°23'0 0.0
2017-May-20 15:28N 47°38' W 122°23'0 0.0
2017-May-20 14:58N 47°38' W 122°23'0 0.0
2017-May-20 14:28N 47°38' W 122°23'0 0.0
2017-May-20 13:30N 47°38' W 122°23'0 0.6
2017-May-20 13:01N 47°37' W 122°23'3 5.5
2017-May-20 12:31N 47°38' W 122°27'611.2
2017-May-20 12:01N 47°44' W 122°28'714.3
2017-May-20 11:31N 47°51' W 122°29'714.9
2017-May-20 11:01N 47°57' W 122°34'815.2
2017-May-20 10:29N 48°04' W 122°40'714.8
2017-May-20 10:00N 48°10' W 122°47'816.0
2017-May-20 09:30N 48°12' W 122°59'816.8
2017-May-20 09:00N 48°11' W 123°11'816.7
2017-May-20 08:30N 48°10' W 123°23'713.8
2017-May-20 08:00N 48°15' W 123°30'816.4
2017-May-20 07:30N 48°23' W 123°25'3 4.9
2017-May-20 07:00N 48°25' W 123°23'0 0.1
2017-May-20 06:28N 48°25' W 123°23'0 0.0
2017-May-20 05:58N 48°25' W 123°23'0 0.0
2017-May-20 04:36N 48°25' W 123°23'0 0.0
2017-May-20 04:30N 48°25' W 123°23'0 0.0
2017-May-20 02:40N 48°25' W 123°23'0 0.0
2017-May-20 02:17N 48°25' W 123°23'0 0.0
2017-May-20 01:59N 48°25' W 123°23'2 3.4
2017-May-20 01:30N 48°24' W 123°25'714.2
2017-May-20 01:00N 48°17' W 123°26'919.1
2017-May-20 00:31N 48°13' W 123°39'1020.9
2017-May-20 00:00N 48°14' W 123°55'1121.1
2017-May-19 23:30N 48°18' W 124°09'1121.4
2017-May-19 23:01N 48°22' W 124°24'18410865.2
2017-May-19 23:00N 48°12' W 129°00'175360.2 300 / 131025.310.8 12.510.011.0
2017-May-19 22:30N 48°27' W 124°38'1020.6
2017-May-19 22:00N 48°29' W 124°53'1121.8
2017-May-19 21:30N 48°29' W 125°10'1122.1
2017-May-19 21:00N 48°34' W 125°24'1122.2
2017-May-19 20:31N 48°40' W 125°39'1121.5
2017-May-19 20:01N 48°46' W 125°53'1121.3
2017-May-19 19:31N 48°52' W 126°06'1121.7
2017-May-19 19:01N 48°58' W 126°19'1122.2
2017-May-19 18:31N 49°05' W 126°32'1122.4
2017-May-19 18:01N 49°12' W 126°46'1223.0
2017-May-19 17:30N 49°20' W 126°60'  
Track history (hours):
 
Tides and Currents Weather Stations Pressure Air Temp Water Temp Dewpoint Dewpoint Depression Visibility Wind Speed Wind Dir Waves Ship Positions

Ruby Princess

Last reported at 2017-May-29 13:00 UTC. Time now 2017-May-29 17:03 UTC.
Position N 57°06' W 134°06'.

Length 289 m.

Type: Ship. MMSI: 310567000.

Wind from 170 at 7 knots

Barometer 1017.6 mb
Air temperature 8.5 ° C
Visibility: greater than 10.8 NM
Dewpoint 7.9 ° C
Water temperature 8.0 ° C

Date/timePositionNaut miles runAvg speedWind from/ knotsBaromVisibWave heightAir tempDewpointWater temp
2017-May-29 13:00N 57°06' W 134°06'6722.2 170 / 71017.610.8 8.5 7.9 8.0
2017-May-29 10:00N 56°00' W 134°24'6722.5 180 / 101018.1 5.4 8.5 6.3 9.0
2017-May-29 07:00N 54°54' W 134°00'40921.1 210 / 161019.510.8 9.0 6.9 9.0
2017-May-28 11:35N 49°28' W 127°17'221.0
2017-May-28 11:30N 49°27' W 127°15'1221.8
2017-May-28 10:56N 49°20' W 126°60'921.5
2017-May-28 10:30N 49°14' W 126°49'1121.4
2017-May-28 10:00N 49°08' W 126°35'1122.0
2017-May-28 09:30N 49°03' W 126°20'1121.8
2017-May-28 09:00N 48°58' W 126°05'1122.0
2017-May-28 08:30N 48°53' W 125°50'1122.0
2017-May-28 08:00N 48°48' W 125°35'4272.4
2017-May-28 08:00N 48°48' W 125°42'1531.0 240 / 201018.0 0.1 9.5 9.511.0
2017-May-28 07:30N 48°42' W 125°21'1122.1
2017-May-28 07:00N 48°38' W 125°06'54107.0
2017-May-28 06:30N 48°17' W 123°51'1121.5
2017-May-28 06:00N 48°15' W 123°35'474975.7
2017-May-28 06:00N 48°30' W 124°42'8754.1 230 / 101020.0 0.1 9.5 9.511.0
2017-May-28 04:24N 48°03' W 122°38'718.5
2017-May-28 04:00N 47°57' W 122°33'1021.4
2017-May-28 03:30N 47°47' W 122°26'917.0
2017-May-28 03:00N 47°39' W 122°27'3875.0
2017-May-28 02:30N 48°12' W 122°53'1019.3
2017-May-28 02:00N 48°07' W 122°41'1019.7
2017-May-28 01:29N 47°58' W 122°34'1020.1
2017-May-28 01:00N 47°49' W 122°27'1019.9
2017-May-28 00:30N 47°40' W 122°27'3 7.0
2017-May-28 00:00N 47°38' W 122°23'0 0.0
2017-May-27 23:30N 47°38' W 122°23'4772.9
2017-May-27 22:51N 48°11' W 123°11'515.5
2017-May-27 22:30N 48°10' W 123°19'5091.9
2017-May-27 21:58N 47°38' W 122°23'56116.7
2017-May-27 21:29N 48°12' W 123°30'56107.7
2017-May-27 20:58N 47°38' W 122°23'0 0.0
2017-May-27 20:30N 47°38' W 122°23'0 0.0
2017-May-27 19:57N 47°38' W 122°23'0 0.0
2017-May-27 19:30N 47°38' W 122°23'0 0.0
2017-May-27 19:00N 47°38' W 122°23'0 0.0
2017-May-27 18:30N 47°38' W 122°23'0 0.0
2017-May-27 17:59N 47°38' W 122°23'0 0.0
2017-May-27 17:29N 47°38' W 122°23'0 0.0
2017-May-27 16:59N 47°38' W 122°23'0 0.0
2017-May-27 16:29N 47°38' W 122°23'0 0.0
2017-May-27 15:59N 47°38' W 122°23'0 0.0
2017-May-27 15:28N 47°38' W 122°23'0 0.0
2017-May-27 14:58N 47°38' W 122°23'0 0.0
2017-May-27 14:28N 47°38' W 122°23'0 0.0
2017-May-27 13:30N 47°38' W 122°23'0 0.0
2017-May-27 13:01N 47°38' W 122°23'2 3.4
2017-May-27 12:30N 47°37' W 122°25'611.2
2017-May-27 12:00N 47°43' W 122°27'713.3
2017-May-27 11:30N 47°49' W 122°28'815.2
2017-May-27 11:00N 47°56' W 122°32'816.5
2017-May-27 10:30N 48°03' W 122°39'917.2
2017-May-27 10:00N 48°10' W 122°47'817.3
2017-May-27 09:30N 48°12' W 122°59'816.1
2017-May-27 09:00N 48°11' W 123°11'815.9
2017-May-27 08:30N 48°10' W 123°23'511.1
2017-May-27 08:00N 48°12' W 123°30'816.8
2017-May-27 07:30N 48°21' W 123°26'5 9.0
2017-May-27 06:59N 48°25' W 123°24'0 0.1
2017-May-27 05:45N 48°25' W 123°24'0 0.0
2017-May-27 03:08N 48°25' W 123°24'0 0.0
2017-May-27 01:55N 48°25' W 123°24'0 0.0
2017-May-27 01:27N 48°25' W 123°24'2 3.5
2017-May-27 01:00N 48°24' W 123°25'714.6
2017-May-27 00:30N 48°16' W 123°25'918.9
2017-May-27 00:00N 48°13' W 123°39'1122.0
2017-May-26 23:30N 48°14' W 123°55'1121.5
2017-May-26 23:00N 48°18' W 124°10'1122.0
2017-May-26 22:30N 48°23' W 124°25'1020.1
2017-May-26 22:00N 48°27' W 124°39'918.4
2017-May-26 21:30N 48°29' W 124°52'1019.1
2017-May-26 21:00N 48°29' W 125°07'918.3
2017-May-26 20:30N 48°32' W 125°19'1020.2
2017-May-26 20:00N 48°37' W 125°32'1121.9
2017-May-26 19:31N 48°43' W 125°47'1121.4
2017-May-26 19:00N 48°49' W 126°00'1121.6
2017-May-26 18:30N 48°55' W 126°13'1121.9
2017-May-26 18:00N 49°02' W 126°26'1122.0
2017-May-26 17:30N 49°09' W 126°39'1121.9
2017-May-26 17:00N 49°16' W 126°53'1322.7
2017-May-26 16:27N 49°24' W 127°08'4116.9
2017-May-26 14:00N 49°48' W 128°00'9826.3 320 / 36
2017-May-26 10:17N 51°09' W 129°26'1422.5
2017-May-26 09:40N 51°22' W 129°34'522.6
2017-May-26 09:28N 51°26' W 129°36'1022.7
2017-May-26 09:00N 51°36' W 129°42'4522.2
2017-May-26 07:00N 52°18' W 130°06'18811.7 330 / 281018.810.8 9.5 6.310.0
2017-May-25 15:00N 55°18' W 131°36'22714.6 300 / 151020.010.8 11.0 7.9 9.0
2017-May-24 23:27N 58°18' W 135°48'614.8
2017-May-24 23:01N 58°22' W 135°58'611.4
2017-May-24 22:31N 58°28' W 136°02'917.6
2017-May-24 22:00N 58°36' W 136°03'  
2017-May-22 14:00N 57°12' W 133°54'21719.7 240 / 71023.810.8 10.8 4.6 8.0
2017-May-22 03:00N 53°36' W 133°24'22120.1 160 / 211028.0 2.2 10.8 9.210.0
2017-May-21 16:00N 50°36' W 129°54'12924.2 210 / 221030.4 2.2 10.0 9.412.0
2017-May-21 10:39N 49°20' W 127°12'621.5
2017-May-21 10:22N 49°16' W 127°04'821.3
2017-May-21 09:59N 49°11' W 126°55'1021.4
2017-May-21 09:31N 49°05' W 126°42'1121.8
2017-May-21 09:00N 48°59' W 126°27'2158.4
2017-May-21 09:00N 49°00' W 126°30'1326.2 280 / 211027.4 0.5 9.8 12.0
2017-May-21 08:31N 48°54' W 126°13'1121.8
2017-May-21 08:01N 48°48' W 125°60'1121.6
2017-May-21 07:31N 48°42' W 125°45'1121.4
2017-May-21 07:01N 48°37' W 125°31'1121.4
2017-May-21 06:31N 48°32' W 125°17'1120.9
2017-May-21 06:00N 48°31' W 125°01'1121.5
2017-May-21 05:31N 48°32' W 124°45'1121.3
2017-May-21 05:01N 48°27' W 124°30'1121.5
2017-May-21 04:31N 48°23' W 124°15'1121.0
2017-May-21 04:00N 48°19' W 124°01'1020.8
2017-May-21 03:31N 48°17' W 123°46'1121.0
2017-May-21 03:00N 48°15' W 123°30'815.7
2017-May-21 02:31N 48°09' W 123°22'816.6
2017-May-21 02:00N 48°12' W 123°10'1121.3
2017-May-21 01:30N 48°12' W 122°55'1122.2
2017-May-21 01:00N 48°07' W 122°40'1122.4
2017-May-21 00:31N 47°57' W 122°33'1121.6
2017-May-21 00:01N 47°47' W 122°26'918.2
2017-May-20 23:31N 47°38' W 122°26'2 4.3
2017-May-20 22:59N 47°38' W 122°23'0 0.0
2017-May-20 22:29N 47°38' W 122°23'0 0.0
2017-May-20 21:59N 47°38' W 122°23'0 0.0
2017-May-20 21:28N 47°38' W 122°23'0 0.0
2017-May-20 20:58N 47°38' W 122°23'0 0.0
2017-May-20 20:28N 47°38' W 122°23'0 0.0
2017-May-20 19:58N 47°38' W 122°23'0 0.0
2017-May-20 19:30N 47°38' W 122°23'0 0.0
2017-May-20 19:00N 47°38' W 122°23'0 0.0
2017-May-20 18:30N 47°38' W 122°23'0 0.0
2017-May-20 17:57N 47°38' W 122°23'0 0.0
2017-May-20 17:30N 47°38' W 122°23'0 0.0
2017-May-20 16:59N 47°38' W 122°23'0 0.0
2017-May-20 16:29N 47°38' W 122°23'0 0.0
2017-May-20 15:59N 47°38' W 122°23'0 0.0
2017-May-20 15:28N 47°38' W 122°23'0 0.0
2017-May-20 14:58N 47°38' W 122°23'0 0.0
2017-May-20 14:28N 47°38' W 122°23'0 0.0
2017-May-20 13:30N 47°38' W 122°23'0 0.6
2017-May-20 13:01N 47°37' W 122°23'3 5.5
2017-May-20 12:31N 47°38' W 122°27'611.2
2017-May-20 12:01N 47°44' W 122°28'714.3
2017-May-20 11:31N 47°51' W 122°29'714.9
2017-May-20 11:01N 47°57' W 122°34'815.2
2017-May-20 10:29N 48°04' W 122°40'714.8
2017-May-20 10:00N 48°10' W 122°47'816.0
2017-May-20 09:30N 48°12' W 122°59'816.8
2017-May-20 09:00N 48°11' W 123°11'816.7
2017-May-20 08:30N 48°10' W 123°23'713.8
2017-May-20 08:00N 48°15' W 123°30'816.4
2017-May-20 07:30N 48°23' W 123°25'3 4.9
2017-May-20 07:00N 48°25' W 123°23'0 0.1
2017-May-20 06:28N 48°25' W 123°23'0 0.0
2017-May-20 05:58N 48°25' W 123°23'0 0.0
2017-May-20 04:36N 48°25' W 123°23'0 0.0
2017-May-20 04:30N 48°25' W 123°23'0 0.0
2017-May-20 02:40N 48°25' W 123°23'0 0.0
2017-May-20 02:17N 48°25' W 123°23'0 0.0
2017-May-20 01:59N 48°25' W 123°23'2 3.4
2017-May-20 01:30N 48°24' W 123°25'714.2
2017-May-20 01:00N 48°17' W 123°26'919.1
2017-May-20 00:31N 48°13' W 123°39'1020.9
2017-May-20 00:00N 48°14' W 123°55'1121.1
2017-May-19 23:30N 48°18' W 124°09'1121.4
2017-May-19 23:01N 48°22' W 124°24'18410865.2
2017-May-19 23:00N 48°12' W 129°00'175360.2 300 / 131025.310.8 12.510.011.0
2017-May-19 22:30N 48°27' W 124°38'1020.6
2017-May-19 22:00N 48°29' W 124°53'1121.8
2017-May-19 21:30N 48°29' W 125°10'1122.1
2017-May-19 21:00N 48°34' W 125°24'1122.2
2017-May-19 20:31N 48°40' W 125°39'1121.5
2017-May-19 20:01N 48°46' W 125°53'1121.3
2017-May-19 19:31N 48°52' W 126°06'1121.7
2017-May-19 19:01N 48°58' W 126°19'1122.2
2017-May-19 18:31N 49°05' W 126°32'1122.4
2017-May-19 18:01N 49°12' W 126°46'1223.0
2017-May-19 17:30N 49°20' W 126°60'  

Dump ship's entire track history